Terminal Aerodrome Forecast
Issued by NWS Charleston, WV

Current Version | Previous Version | Graphics & Text | Print | Product List | Glossary On
Versions: 1 2 3 4 5 6 7 8 9 10 11 12 13 14 15 16 17 18 19 20 21 22 23 24 25 26 27 28
686
FTUS41 KRLX 251124
TAFBKW
TAF
KBKW 251124Z 2512/2612 31009KT 3SM -RA BR SCT030 BKN060 OVC070
     FM251300 26010KT 4SM SHRA OVC017
     FM251700 28015G28KT P6SM BKN040=

USA.gov is the U.S. government's official web portal to all federal, state and local government web resources and services.